Skip Navigation LinksHome page > Weather > Current weather Skip Navigation Links

Current Weather

Honolulu Intl, Honolulu

For information only: do not use for flight planning or navigation.
Latest weather
Observation time Friday, June 23, 2017 9:53 AM HST
Local time Friday, June 23, 2017 10:37 AM HST
Flight conditions Visual Meteorological Conditions
Winds
Wind direction East-Southeast (120°)
Wind speed 8 mph
Visibility 10 mi.
Present weather light rain
Sky condition
Ceiling 8,000 ft. broken clouds
Cloud layer few clouds 2,500 ft.
Cloud layer scattered clouds 3,500 ft.
Cloud layer broken clouds 8,000 ft.
Temperature 77°F
Dewpoint 67°F
Altimeter 29.97 in.Hg
Precipitation
Rain began 9:42 AM
Precipitation last hour trace
Derived measurements
Relative humidity 71%
Heat index 77°F
Density altitude 1422 ft.
Sea-level pressure 29.97 in.Hg
Remarks
Automated weather observing station with precipitation discriminator.
METAR PHNL 231953Z 12007KT 10SM -RA FEW025 SCT035 BKN080 25/19 A2997 RMK AO2 RAB42 SLP149 P0000 T02500194

Settings

Location code

InnerDrive.Weather 4.0.6144.1 Release CLR 4.0.30319.36366
Copyright ©2015 Inner Drive Technology. All rights reserved. Portions Copyright ©1986-2015 David Braverman.

Find weather

Site navigation


Skip Navigation Links

Place info

Page info

PayPal - The safer, easier way to pay online!

Return home.

Copyright ©2017 Inner Drive Technology. Purveyors of fine, hand-crafted computer software. Page printed 2017-06-23T20:37:39 UTC.